createdAt,value
2022-10-10T00:04:43.077Z,8.04
2022-10-10T00:09:44.471Z,8.10
2022-10-10T00:14:45.943Z,8.00
2022-10-10T00:19:47.368Z,7.96
2022-10-10T00:24:48.839Z,7.85
2022-10-10T00:29:50.237Z,7.82
2022-10-10T00:34:52.266Z,7.79
2022-10-10T00:39:53.696Z,7.88
2022-10-10T00:45:28.090Z,7.97
2022-10-10T00:50:31.311Z,8.02
2022-10-10T00:55:33.351Z,7.99
2022-10-10T01:00:35.126Z,7.85
2022-10-10T01:05:37.334Z,7.80
2022-10-10T01:11:16.424Z,7.73
2022-10-10T01:16:27.477Z,7.66
2022-10-10T01:21:45.899Z,7.68
2022-10-10T01:27:10.120Z,7.80
2022-10-10T01:32:19.887Z,7.80
2022-10-10T01:37:31.226Z,7.71
2022-10-10T01:42:42.315Z,7.70
2022-10-10T01:47:43.846Z,7.70
2022-10-10T01:52:51.083Z,7.61
2022-10-10T01:58:20.351Z,7.59
2022-10-10T02:03:31.431Z,7.45
2022-10-10T02:08:35.608Z,7.42
2022-10-10T02:14:02.277Z,7.43
2022-10-10T02:19:08.577Z,7.41
2022-10-10T02:24:13.087Z,7.39
2022-10-10T02:29:20.739Z,7.43
2022-10-10T02:34:27.088Z,7.43
2022-10-10T02:39:33.457Z,7.38
2022-10-10T02:44:35.886Z,7.17
2022-10-10T02:49:37.494Z,7.09
2022-10-10T02:54:38.968Z,7.03
2022-10-10T02:59:40.499Z,7.22
2022-10-10T03:04:42.274Z,7.18
2022-10-10T03:09:43.693Z,7.09
2022-10-10T03:14:45.541Z,7.13
2022-10-10T03:19:46.937Z,7.10
2022-10-10T03:24:48.348Z,7.11
2022-10-10T03:29:49.784Z,7.11
2022-10-10T03:34:51.262Z,7.13
2022-10-10T03:39:52.681Z,7.07
2022-10-10T03:44:54.313Z,7.06
2022-10-10T03:49:55.726Z,7.05
2022-10-10T03:54:57.166Z,7.10
2022-10-10T03:59:58.566Z,7.11
2022-10-10T04:05:00.036Z,7.06
2022-10-10T04:10:01.890Z,6.99
2022-10-10T04:15:03.638Z,6.90
2022-10-10T04:20:05.476Z,6.92
2022-10-10T04:25:07.109Z,6.92
2022-10-10T04:30:08.877Z,6.93
2022-10-10T04:35:10.807Z,6.94
2022-10-10T04:40:12.291Z,6.94
2022-10-10T04:45:13.738Z,6.92
2022-10-10T04:50:15.183Z,6.90
2022-10-10T04:55:17.090Z,6.82
2022-10-10T05:00:18.627Z,6.88
2022-10-10T05:05:20.055Z,6.94
2022-10-10T05:10:21.514Z,7.02
2022-10-10T05:15:23.001Z,6.84
2022-10-10T05:20:24.426Z,6.81
2022-10-10T05:25:26.283Z,6.83
2022-10-10T05:30:27.721Z,6.90
2022-10-10T05:35:29.435Z,6.89
2022-10-10T05:40:30.878Z,6.84
2022-10-10T05:45:32.414Z,6.86
2022-10-10T05:50:41.748Z,6.89
2022-10-10T05:55:44.545Z,6.96
2022-10-10T06:00:47.226Z,7.04
2022-10-10T06:05:51.626Z,7.03
2022-10-10T06:10:53.289Z,7.17
2022-10-10T06:15:55.164Z,7.27
2022-10-10T06:21:02.591Z,7.40
2022-10-10T06:26:04.357Z,7.42
2022-10-10T06:31:08.408Z,7.63
2022-10-10T06:36:11.456Z,7.73
2022-10-10T06:41:13.311Z,7.89
2022-10-10T06:46:14.931Z,8.05
2022-10-10T06:51:17.891Z,8.17
2022-10-10T06:56:26.308Z,8.38
2022-10-10T07:01:28.592Z,8.58
2022-10-10T07:06:34.536Z,8.55
2022-10-10T07:11:36.318Z,8.74
2022-10-10T07:16:37.864Z,8.90
2022-10-10T07:21:39.356Z,9.11
2022-10-10T07:26:40.759Z,9.35
2022-10-10T07:31:42.163Z,9.38
2022-10-10T07:36:46.722Z,9.67
2022-10-10T07:41:49.613Z,9.81
2022-10-10T07:46:51.072Z,10.18
2022-10-10T07:51:53.439Z,10.32
2022-10-10T07:56:57.066Z,10.76
2022-10-10T08:01:58.674Z,10.74
2022-10-10T08:07:00.156Z,10.94
2022-10-10T08:12:01.578Z,11.21
2022-10-10T08:17:03.010Z,11.61
2022-10-10T08:22:04.424Z,11.65
2022-10-10T08:27:05.845Z,11.87
2022-10-10T08:32:07.844Z,12.11
2022-10-10T08:37:09.375Z,12.38
2022-10-10T08:42:17.577Z,12.43
2022-10-10T08:47:24.451Z,12.50
2022-10-10T08:52:56.395Z,12.80
2022-10-10T08:58:31.473Z,13.01
2022-10-10T09:03:45.417Z,13.06
2022-10-10T09:09:08.214Z,13.37
2022-10-10T09:14:31.456Z,13.65
2022-10-10T09:20:17.404Z,13.86
2022-10-10T09:25:23.887Z,13.97
2022-10-10T09:30:27.638Z,14.18
2022-10-10T09:35:34.559Z,14.79
2022-10-10T09:40:48.516Z,14.80
2022-10-10T09:45:49.898Z,14.87
2022-10-10T09:50:51.320Z,15.05
2022-10-10T09:55:53.890Z,15.27
2022-10-10T10:01:13.826Z,15.28
2022-10-10T10:06:15.615Z,15.47
2022-10-10T10:11:33.542Z,15.56
2022-10-10T10:16:38.306Z,15.75
2022-10-10T10:21:51.480Z,15.94
2022-10-10T10:26:52.896Z,16.02
2022-10-10T10:32:27.119Z,16.06
2022-10-10T10:38:05.078Z,16.06
2022-10-10T10:43:21.889Z,16.09
2022-10-10T10:48:35.176Z,16.23
2022-10-10T10:53:44.532Z,16.45
2022-10-10T10:59:41.766Z,16.50
2022-10-10T11:05:19.116Z,16.55
2022-10-10T11:10:56.114Z,16.52
2022-10-10T11:16:24.353Z,16.56
2022-10-10T11:21:37.887Z,16.65
2022-10-10T11:26:52.022Z,16.91
2022-10-10T11:32:03.544Z,17.18
2022-10-10T11:37:13.486Z,17.27
2022-10-10T11:42:20.737Z,17.42
2022-10-10T11:47:30.773Z,17.48
2022-10-10T11:52:44.278Z,17.54
2022-10-10T11:57:53.350Z,17.62
2022-10-10T12:02:56.962Z,17.66
2022-10-10T12:07:58.364Z,17.80
2022-10-10T12:13:12.096Z,17.95
2022-10-10T12:18:38.372Z,18.14
2022-10-10T12:23:42.492Z,18.04
2022-10-10T12:29:05.183Z,18.18
2022-10-10T12:34:37.466Z,18.45
2022-10-10T12:39:59.269Z,18.47
2022-10-10T12:45:01.278Z,18.55
2022-10-10T12:50:06.980Z,18.58
2022-10-10T12:55:19.073Z,18.63
2022-10-10T13:00:26.197Z,18.70
2022-10-10T13:05:35.091Z,18.64
2022-10-10T13:10:36.537Z,18.55
2022-10-10T13:15:38.135Z,18.50
2022-10-10T13:20:40.568Z,18.73
2022-10-10T13:25:45.764Z,18.71
2022-10-10T13:30:49.669Z,18.48
2022-10-10T13:35:51.347Z,18.43
2022-10-10T13:40:53.471Z,18.47
2022-10-10T13:46:03.619Z,18.12
2022-10-10T13:51:12.230Z,18.08
2022-10-10T13:56:19.633Z,18.08
2022-10-10T14:01:27.021Z,17.96
2022-10-10T14:06:29.505Z,18.07
2022-10-10T14:11:32.124Z,18.33
2022-10-10T14:16:33.812Z,18.26
2022-10-10T14:21:35.216Z,18.29
2022-10-10T14:26:37.280Z,18.39
2022-10-10T14:31:38.777Z,18.39
2022-10-10T14:36:45.725Z,18.42
2022-10-10T14:41:47.484Z,18.24
2022-10-10T14:46:48.897Z,18.24
2022-10-10T14:51:50.556Z,18.17
2022-10-10T14:57:06.824Z,18.11
2022-10-10T15:02:11.035Z,17.82
2022-10-10T15:07:14.259Z,17.67
2022-10-10T15:12:16.508Z,17.59
2022-10-10T15:17:18.248Z,17.52
2022-10-10T15:22:19.654Z,17.28
2022-10-10T15:27:21.079Z,17.28
2022-10-10T15:32:22.514Z,17.12
2022-10-10T15:37:26.679Z,16.84
2022-10-10T15:42:28.185Z,16.66
2022-10-10T15:47:29.674Z,16.52
2022-10-10T15:52:31.099Z,16.50
2022-10-10T15:57:32.632Z,16.42
2022-10-10T16:02:34.050Z,16.37
2022-10-10T16:07:42.116Z,16.25
2022-10-10T16:12:48.291Z,16.04
2022-10-10T16:17:49.712Z,15.78
2022-10-10T16:22:51.376Z,15.69
2022-10-10T16:27:52.972Z,15.55
2022-10-10T16:32:54.495Z,15.49
2022-10-10T16:37:55.933Z,15.30
2022-10-10T16:42:57.368Z,15.29
2022-10-10T16:47:58.786Z,15.23
2022-10-10T16:53:00.246Z,15.19
2022-10-10T16:58:01.659Z,15.09
2022-10-10T17:03:03.961Z,15.02
2022-10-10T17:08:05.558Z,15.01
2022-10-10T17:13:06.991Z,14.94
2022-10-10T17:18:09.900Z,14.89
2022-10-10T17:23:12.979Z,14.81
2022-10-10T17:28:15.132Z,14.80
2022-10-10T17:33:19.373Z,14.75
2022-10-10T17:38:39.091Z,14.74
2022-10-10T17:43:41.301Z,14.63
2022-10-10T17:48:42.778Z,14.57
2022-10-10T17:53:44.975Z,14.49
2022-10-10T17:58:47.278Z,14.53
2022-10-10T18:03:48.915Z,14.44
2022-10-10T18:08:53.231Z,14.50
2022-10-10T18:13:59.988Z,14.45
2022-10-10T18:19:03.561Z,14.43
2022-10-10T18:24:05.236Z,14.33
2022-10-10T18:29:06.661Z,14.25
2022-10-10T18:34:08.088Z,14.14
2022-10-10T18:39:12.749Z,13.99
2022-10-10T18:44:17.496Z,14.03
2022-10-10T18:49:19.503Z,13.91
2022-10-10T18:54:20.990Z,13.90
2022-10-10T18:59:22.450Z,13.93
2022-10-10T19:04:23.939Z,13.94
2022-10-10T19:09:26.692Z,13.94
2022-10-10T19:14:28.308Z,13.95
2022-10-10T19:19:29.884Z,13.93
2022-10-10T19:24:31.384Z,13.95
2022-10-10T19:29:33.203Z,13.96
2022-10-10T19:34:34.662Z,13.86
2022-10-10T19:39:36.109Z,13.86
2022-10-10T19:44:37.519Z,13.76
2022-10-10T19:49:39.271Z,13.74
2022-10-10T19:54:40.683Z,13.75
2022-10-10T19:59:42.116Z,13.78
2022-10-10T20:04:43.534Z,13.78
2022-10-10T20:09:45.234Z,13.79
2022-10-10T20:14:46.668Z,13.80
2022-10-10T20:19:48.343Z,13.84
2022-10-10T20:24:49.894Z,13.81
2022-10-10T20:29:51.291Z,13.77
2022-10-10T20:34:52.712Z,13.73
2022-10-10T20:39:54.189Z,13.72
2022-10-10T20:44:55.625Z,13.75
2022-10-10T20:49:57.033Z,13.71
2022-10-10T20:54:58.533Z,13.66
2022-10-10T20:59:59.936Z,13.64
2022-10-10T21:05:01.383Z,13.59
2022-10-10T21:10:03.379Z,13.54
2022-10-10T21:15:05.255Z,13.47
2022-10-10T21:20:07.196Z,13.46
2022-10-10T21:25:08.728Z,13.44
2022-10-10T21:30:10.562Z,13.49
2022-10-10T21:35:11.967Z,13.61
2022-10-10T21:40:13.391Z,13.65
2022-10-10T21:45:14.789Z,13.68
2022-10-10T21:50:16.265Z,13.75
2022-10-10T21:55:17.677Z,13.81
2022-10-10T22:00:19.689Z,13.80
2022-10-10T22:05:21.145Z,13.79
2022-10-10T22:10:22.578Z,13.78
2022-10-10T22:15:24.037Z,13.72
2022-10-10T22:20:25.689Z,13.71
2022-10-10T22:25:27.136Z,13.70
2022-10-10T22:30:28.532Z,13.64
2022-10-10T22:35:30.751Z,13.69
2022-10-10T22:40:32.488Z,13.77
2022-10-10T22:45:34.315Z,13.84
2022-10-10T22:50:35.740Z,13.86
2022-10-10T22:55:37.157Z,13.87
2022-10-10T23:00:40.261Z,13.91
2022-10-10T23:05:44.145Z,13.93
2022-10-10T23:10:46.906Z,13.93
2022-10-10T23:15:48.519Z,13.85
2022-10-10T23:20:51.002Z,13.81
2022-10-10T23:25:52.455Z,13.74
2022-10-10T23:30:53.873Z,13.63
2022-10-10T23:35:59.707Z,13.44
2022-10-10T23:41:01.149Z,13.32
2022-10-10T23:46:03.433Z,13.25
2022-10-10T23:51:05.818Z,13.20
2022-10-10T23:56:08.090Z,13.14
